createdAt,value
2023-01-07T00:01:17.713Z,9.01
2023-01-07T00:03:46.488Z,8.97
2023-01-07T00:06:16.561Z,9.02
2023-01-07T00:08:46.466Z,8.96
2023-01-07T00:11:19.422Z,9.05
2023-01-07T00:13:49.496Z,8.97
2023-01-07T00:16:19.815Z,9.01
2023-01-07T00:18:48.579Z,9.08
2023-01-07T00:21:18.287Z,9.05
2023-01-07T00:23:47.293Z,8.93
2023-01-07T00:26:17.238Z,8.89
2023-01-07T00:28:48.094Z,9.07
2023-01-07T00:31:18.215Z,8.98
2023-01-07T00:33:51.885Z,9.13
2023-01-07T00:36:22.255Z,9.04
2023-01-07T00:38:56.923Z,9.22
2023-01-07T00:41:25.290Z,9.04
2023-01-07T00:43:54.872Z,9.15
2023-01-07T00:46:23.020Z,9.19
2023-01-07T00:48:51.466Z,9.08
2023-01-07T00:51:19.951Z,9.35
2023-01-07T00:53:48.631Z,9.36
2023-01-07T00:56:19.080Z,9.30
2023-01-07T00:58:47.345Z,9.18
2023-01-07T01:01:17.964Z,9.36
2023-01-07T01:03:46.494Z,9.13
2023-01-07T01:06:16.712Z,9.39
2023-01-07T01:08:45.233Z,9.36
2023-01-07T01:11:14.891Z,9.49
2023-01-07T01:13:43.380Z,9.37
2023-01-07T01:16:14.961Z,9.35
2023-01-07T01:18:45.168Z,9.36
2023-01-07T01:21:14.137Z,9.38
2023-01-07T01:23:42.533Z,9.36
2023-01-07T01:26:13.706Z,8.77
2023-01-07T01:28:41.804Z,9.40
2023-01-07T01:31:11.004Z,8.82
2023-01-07T01:33:49.542Z,8.88
2023-01-07T01:36:18.234Z,9.34
2023-01-07T01:38:46.118Z,9.34
2023-01-07T01:41:16.252Z,9.26
2023-01-07T01:43:46.367Z,8.74
2023-01-07T01:46:18.881Z,9.29
2023-01-07T01:48:53.141Z,9.31
2023-01-07T01:51:25.513Z,9.23
2023-01-07T01:53:54.941Z,9.24
2023-01-07T01:56:28.874Z,9.36
2023-01-07T01:59:04.114Z,9.34
2023-01-07T02:01:34.773Z,9.43
2023-01-07T02:04:12.234Z,8.47
2023-01-07T02:06:50.545Z,9.29
2023-01-07T02:09:19.021Z,9.33
2023-01-07T02:11:57.531Z,9.34
2023-01-07T02:14:58.295Z,8.89
2023-01-07T02:17:36.995Z,9.32
2023-01-07T02:20:26.774Z,9.35
2023-01-07T02:23:30.264Z,9.32
2023-01-07T02:26:31.870Z,8.94
2023-01-07T02:29:37.834Z,9.33
2023-01-07T02:32:21.234Z,9.32
2023-01-07T02:34:58.518Z,8.86
2023-01-07T02:37:36.511Z,8.76
2023-01-07T02:40:11.921Z,9.30
2023-01-07T02:42:50.498Z,9.15
2023-01-07T02:45:28.501Z,9.24
2023-01-07T02:47:59.536Z,9.34
2023-01-07T02:50:27.525Z,9.31
2023-01-07T02:52:55.455Z,9.08
2023-01-07T02:55:34.859Z,9.37
2023-01-07T02:58:32.458Z,9.40
2023-01-07T03:01:26.504Z,9.34
2023-01-07T03:04:10.798Z,9.01
2023-01-07T03:06:55.545Z,9.41
2023-01-07T03:09:32.706Z,9.34
2023-01-07T03:12:09.036Z,9.31
2023-01-07T03:14:42.523Z,9.13
2023-01-07T03:17:13.783Z,9.30
2023-01-07T03:19:48.502Z,9.39
2023-01-07T03:22:20.956Z,9.30
2023-01-07T03:24:51.211Z,9.26
2023-01-07T03:27:20.118Z,9.35
2023-01-07T03:29:49.101Z,9.28
2023-01-07T03:32:19.177Z,9.24
2023-01-07T03:34:50.055Z,8.52
2023-01-07T03:37:22.333Z,9.33
2023-01-07T03:39:51.365Z,9.33
2023-01-07T03:42:40.223Z,9.33
2023-01-07T03:45:14.196Z,9.30
2023-01-07T03:47:45.749Z,9.27
2023-01-07T03:50:16.639Z,9.17
2023-01-07T03:52:48.675Z,8.67
2023-01-07T03:55:18.831Z,9.27
2023-01-07T03:57:48.557Z,9.31
2023-01-07T04:00:16.964Z,9.28
2023-01-07T04:02:52.615Z,9.21
2023-01-07T04:05:35.912Z,9.18
2023-01-07T04:08:03.837Z,9.19
2023-01-07T04:10:34.930Z,9.23
2023-01-07T04:13:03.140Z,8.33
2023-01-07T04:15:32.699Z,8.85
2023-01-07T04:18:00.935Z,8.38
2023-01-07T04:20:29.978Z,8.24
2023-01-07T04:22:59.411Z,9.14
2023-01-07T04:25:27.292Z,8.98
2023-01-07T04:27:56.100Z,9.04
2023-01-07T04:30:25.298Z,9.00
2023-01-07T04:32:53.261Z,8.97
2023-01-07T04:35:21.538Z,8.05
2023-01-07T04:37:49.769Z,8.87
2023-01-07T04:40:19.421Z,8.79
2023-01-07T04:42:47.523Z,8.24
2023-01-07T04:45:15.488Z,7.78
2023-01-07T04:47:43.576Z,8.74
2023-01-07T04:50:11.797Z,8.58
2023-01-07T04:52:40.603Z,8.45
2023-01-07T04:55:11.121Z,8.35
2023-01-07T04:57:41.521Z,7.36
2023-01-07T05:00:12.127Z,8.23
2023-01-07T05:02:40.806Z,8.42
2023-01-07T05:05:11.576Z,7.88
2023-01-07T05:07:40.819Z,8.06
2023-01-07T05:10:10.623Z,8.40
2023-01-07T05:12:38.840Z,8.34
2023-01-07T05:15:12.238Z,8.37
2023-01-07T05:17:42.015Z,8.32
2023-01-07T05:20:11.280Z,8.07
2023-01-07T05:22:40.875Z,7.76
2023-01-07T05:25:11.012Z,8.27
2023-01-07T05:27:38.874Z,7.67
2023-01-07T05:30:11.962Z,7.23
2023-01-07T05:32:39.853Z,7.21
2023-01-07T05:35:08.702Z,8.27
2023-01-07T05:37:36.893Z,7.15
2023-01-07T05:40:07.401Z,8.09
2023-01-07T05:42:35.459Z,7.19
2023-01-07T05:45:03.496Z,7.10
2023-01-07T05:47:33.048Z,7.39
2023-01-07T05:50:01.064Z,7.27
2023-01-07T05:52:29.125Z,7.24
2023-01-07T05:54:56.994Z,7.47
2023-01-07T05:57:25.030Z,7.42
2023-01-07T05:59:52.947Z,7.44
2023-01-07T06:02:20.871Z,6.83
2023-01-07T06:04:50.250Z,7.35
2023-01-07T06:07:18.402Z,7.09
2023-01-07T06:09:46.354Z,7.40
2023-01-07T06:12:14.207Z,7.53
2023-01-07T06:14:42.023Z,7.44
2023-01-07T06:17:09.976Z,7.48
2023-01-07T06:19:37.903Z,7.38
2023-01-07T06:22:07.467Z,7.48
2023-01-07T06:24:35.421Z,6.50
2023-01-07T06:27:03.286Z,7.26
2023-01-07T06:29:31.156Z,7.27
2023-01-07T06:31:59.595Z,7.21
2023-01-07T06:34:27.497Z,7.19
2023-01-07T06:36:55.299Z,7.12
2023-01-07T06:39:24.574Z,6.73
2023-01-07T06:41:52.459Z,7.21
2023-01-07T06:44:20.504Z,7.49
2023-01-07T06:46:48.387Z,7.80
2023-01-07T06:49:16.273Z,7.44
2023-01-07T06:51:44.131Z,8.06
2023-01-07T06:54:12.072Z,8.15
2023-01-07T06:56:41.711Z,8.32
2023-01-07T06:59:09.642Z,8.33
2023-01-07T07:01:37.643Z,7.88
2023-01-07T07:04:06.003Z,8.36
2023-01-07T07:06:34.127Z,8.46
2023-01-07T07:09:01.975Z,8.50
2023-01-07T07:11:29.883Z,7.50
2023-01-07T07:14:00.190Z,8.44
2023-01-07T07:16:28.014Z,8.49
2023-01-07T07:18:55.913Z,8.57
2023-01-07T07:21:23.851Z,8.46
2023-01-07T07:23:51.787Z,8.63
2023-01-07T07:26:19.754Z,8.14
2023-01-07T07:28:47.643Z,8.35
2023-01-07T07:31:17.132Z,8.22
2023-01-07T07:33:45.074Z,8.65
2023-01-07T07:36:12.898Z,8.54
2023-01-07T07:38:40.812Z,8.47
2023-01-07T07:41:08.674Z,8.01
2023-01-07T07:43:36.883Z,7.75
2023-01-07T07:46:05.383Z,8.67
2023-01-07T07:48:34.909Z,8.28
2023-01-07T07:51:02.917Z,8.59
2023-01-07T07:53:30.929Z,8.66
2023-01-07T07:55:58.900Z,8.58
2023-01-07T07:58:26.894Z,8.50
2023-01-07T08:00:54.776Z,8.55
2023-01-07T08:03:23.924Z,7.24
2023-01-07T08:05:53.388Z,8.56
2023-01-07T08:08:21.153Z,8.58
2023-01-07T08:10:49.038Z,8.60
2023-01-07T08:13:17.028Z,8.50
2023-01-07T08:15:45.447Z,8.63
2023-01-07T08:18:13.521Z,8.66
2023-01-07T08:20:41.645Z,8.64
2023-01-07T08:23:11.238Z,8.71
2023-01-07T08:25:39.338Z,8.68
2023-01-07T08:28:07.226Z,8.68
2023-01-07T08:30:35.459Z,8.82
2023-01-07T08:33:08.901Z,8.94
2023-01-07T08:35:36.922Z,9.04
2023-01-07T08:38:06.681Z,8.95
2023-01-07T08:40:36.530Z,8.50
2023-01-07T08:43:07.069Z,9.13
2023-01-07T08:45:36.213Z,8.15
2023-01-07T08:48:04.264Z,9.17
2023-01-07T08:50:34.127Z,9.08
2023-01-07T08:53:02.433Z,9.19
2023-01-07T08:55:30.702Z,9.06
2023-01-07T08:58:00.285Z,9.27
2023-01-07T09:00:28.382Z,8.85
2023-01-07T09:02:56.281Z,9.29
2023-01-07T09:05:24.590Z,8.93
2023-01-07T09:07:54.164Z,9.28
2023-01-07T09:10:22.394Z,8.58
2023-01-07T09:12:50.430Z,8.40
2023-01-07T09:15:19.768Z,9.48
2023-01-07T09:17:47.664Z,9.34
2023-01-07T09:20:15.544Z,9.41
2023-01-07T09:22:43.625Z,8.69
2023-01-07T09:25:11.941Z,9.59
2023-01-07T09:27:40.365Z,9.28
2023-01-07T09:30:09.815Z,9.00
2023-01-07T09:32:39.146Z,9.54
2023-01-07T09:35:08.255Z,9.60
2023-01-07T09:37:36.148Z,9.67
2023-01-07T09:40:05.229Z,9.54
2023-01-07T09:42:42.806Z,9.78
2023-01-07T09:45:18.321Z,9.23
2023-01-07T09:47:52.040Z,9.93
2023-01-07T09:50:29.204Z,9.75
2023-01-07T09:53:01.950Z,9.73
2023-01-07T09:55:37.382Z,9.64
2023-01-07T09:58:05.655Z,9.91
2023-01-07T10:00:36.433Z,9.85
2023-01-07T10:03:17.580Z,9.75
2023-01-07T10:05:56.996Z,8.93
2023-01-07T10:08:38.227Z,9.82
2023-01-07T10:11:18.653Z,10.02
2023-01-07T10:14:02.919Z,9.92
2023-01-07T10:16:39.779Z,10.29
2023-01-07T10:19:20.665Z,10.23
2023-01-07T10:21:55.401Z,9.67
2023-01-07T10:24:27.803Z,10.18
2023-01-07T10:26:59.852Z,9.85
2023-01-07T10:29:33.152Z,10.04
2023-01-07T10:32:08.525Z,10.12
2023-01-07T10:34:46.100Z,9.00
2023-01-07T10:37:21.315Z,10.13
2023-01-07T10:39:57.759Z,9.57
2023-01-07T10:42:33.758Z,9.65
2023-01-07T10:45:24.411Z,10.20
2023-01-07T10:48:18.212Z,10.26
2023-01-07T10:51:08.770Z,9.61
2023-01-07T10:53:49.435Z,10.07
2023-01-07T10:56:27.905Z,9.97
2023-01-07T10:58:56.207Z,10.09
2023-01-07T11:01:27.205Z,9.97
2023-01-07T11:03:57.143Z,9.98
2023-01-07T11:06:39.320Z,10.04
2023-01-07T11:09:11.979Z,10.06
2023-01-07T11:11:41.413Z,10.14
2023-01-07T11:14:13.934Z,10.08
2023-01-07T11:16:48.568Z,10.15
2023-01-07T11:19:21.020Z,9.47
2023-01-07T11:21:52.078Z,10.02
2023-01-07T11:24:31.309Z,9.98
2023-01-07T11:27:05.392Z,9.49
2023-01-07T11:29:39.914Z,9.86
2023-01-07T11:32:20.091Z,10.10
2023-01-07T11:34:56.521Z,9.18
2023-01-07T11:37:40.729Z,10.06
2023-01-07T11:40:21.928Z,9.96
2023-01-07T11:42:52.331Z,9.91
2023-01-07T11:45:22.593Z,9.95
2023-01-07T11:47:54.597Z,9.92
2023-01-07T11:50:25.949Z,9.99
2023-01-07T11:53:00.308Z,9.91
2023-01-07T11:55:28.896Z,9.97
2023-01-07T11:58:29.799Z,9.99
2023-01-07T12:00:45.912Z,10.04
2023-01-07T12:03:15.246Z,9.67
2023-01-07T12:05:45.430Z,10.09
2023-01-07T12:08:23.889Z,10.03
2023-01-07T12:10:56.437Z,9.91
2023-01-07T12:13:27.649Z,9.93
2023-01-07T12:15:58.746Z,9.84
2023-01-07T12:18:50.809Z,9.44
2023-01-07T12:21:34.576Z,9.42
2023-01-07T12:24:36.868Z,9.82
2023-01-07T12:27:14.365Z,9.48
2023-01-07T12:29:57.248Z,9.65
2023-01-07T12:32:39.672Z,9.79
2023-01-07T12:35:15.027Z,9.88
2023-01-07T12:37:49.006Z,9.34
2023-01-07T12:40:28.560Z,9.59
2023-01-07T12:43:03.326Z,9.86
2023-01-07T12:45:40.614Z,9.78
2023-01-07T12:48:18.124Z,9.23
2023-01-07T12:50:50.999Z,10.04
2023-01-07T12:53:27.775Z,10.05
2023-01-07T12:56:01.215Z,10.07
2023-01-07T12:58:40.941Z,10.03
2023-01-07T13:01:18.180Z,9.86
2023-01-07T13:03:55.526Z,9.85
2023-01-07T13:06:36.749Z,9.91
2023-01-07T13:09:15.121Z,9.93
2023-01-07T13:12:04.758Z,9.99
2023-01-07T13:14:39.331Z,10.02
2023-01-07T13:17:16.402Z,9.93
2023-01-07T13:19:44.924Z,9.91
2023-01-07T13:22:18.428Z,9.05
2023-01-07T13:24:57.545Z,9.62
2023-01-07T13:27:32.740Z,9.91
2023-01-07T13:30:15.980Z,9.89
2023-01-07T13:33:05.549Z,9.78
2023-01-07T13:35:56.677Z,9.28
2023-01-07T13:38:52.862Z,9.85
2023-01-07T13:41:34.260Z,9.84
2023-01-07T13:44:40.847Z,9.89
2023-01-07T13:47:12.717Z,9.49
2023-01-07T13:49:40.820Z,9.80
2023-01-07T13:52:28.051Z,9.62
2023-01-07T13:54:59.345Z,9.94
2023-01-07T13:57:43.362Z,10.02
2023-01-07T14:00:42.353Z,10.07
2023-01-07T14:03:36.560Z,10.11
2023-01-07T14:06:44.276Z,10.07
2023-01-07T14:09:18.693Z,9.08
2023-01-07T14:12:05.759Z,9.93
2023-01-07T14:14:45.818Z,9.86
2023-01-07T14:17:28.115Z,9.59
2023-01-07T14:20:04.526Z,9.80
2023-01-07T14:22:43.269Z,8.80
2023-01-07T14:25:44.301Z,9.99
2023-01-07T14:28:54.656Z,10.03
2023-01-07T14:31:23.093Z,10.04
2023-01-07T14:33:58.133Z,9.91
2023-01-07T14:36:46.728Z,9.90
2023-01-07T14:39:36.887Z,9.82
2023-01-07T14:42:49.559Z,9.95
2023-01-07T14:45:56.130Z,9.89
2023-01-07T14:48:32.981Z,9.82
2023-01-07T14:51:46.706Z,9.73
2023-01-07T14:54:36.128Z,9.62
2023-01-07T14:57:12.251Z,9.80
2023-01-07T15:00:03.479Z,9.76
2023-01-07T15:02:54.036Z,9.06
2023-01-07T15:05:53.175Z,9.53
2023-01-07T15:08:53.437Z,9.37
2023-01-07T15:11:44.881Z,8.87
2023-01-07T15:14:39.888Z,8.76
2023-01-07T15:17:09.232Z,9.39
2023-01-07T15:19:40.877Z,9.59
2023-01-07T15:22:28.685Z,9.52
2023-01-07T15:25:03.885Z,9.52
2023-01-07T15:27:45.613Z,9.54
2023-01-07T15:30:28.798Z,8.84
2023-01-07T15:33:03.218Z,9.56
2023-01-07T15:35:35.198Z,9.52
2023-01-07T15:38:05.236Z,9.37
2023-01-07T15:40:33.207Z,9.42
2023-01-07T15:43:02.771Z,8.71
2023-01-07T15:45:30.795Z,8.81
2023-01-07T15:48:13.037Z,9.13
2023-01-07T15:50:46.000Z,8.29
2023-01-07T15:53:22.265Z,9.32
2023-01-07T15:55:58.711Z,9.16
2023-01-07T15:58:37.831Z,9.13
2023-01-07T16:01:06.432Z,9.31
2023-01-07T16:03:38.062Z,9.38
2023-01-07T16:06:22.814Z,8.83
2023-01-07T16:08:52.009Z,9.27
2023-01-07T16:11:25.197Z,8.62
2023-01-07T16:13:59.340Z,9.31
2023-01-07T16:16:28.363Z,9.32
2023-01-07T16:18:57.391Z,9.42
2023-01-07T16:21:28.251Z,9.02
2023-01-07T16:23:56.353Z,8.84
2023-01-07T16:26:31.608Z,9.09
2023-01-07T16:29:08.087Z,8.45
2023-01-07T16:31:37.169Z,9.15
2023-01-07T16:34:38.171Z,9.38
2023-01-07T16:37:13.727Z,8.76
2023-01-07T16:39:47.315Z,9.13
2023-01-07T16:42:23.291Z,9.34
2023-01-07T16:45:04.956Z,9.27
2023-01-07T16:47:34.775Z,9.33
2023-01-07T16:50:44.245Z,9.38
2023-01-07T16:53:24.751Z,9.35
2023-01-07T16:55:54.627Z,8.80
2023-01-07T16:58:30.268Z,7.88
2023-01-07T17:01:02.384Z,8.95
2023-01-07T17:03:32.160Z,9.18
2023-01-07T17:06:04.819Z,8.99
2023-01-07T17:08:34.668Z,8.79
2023-01-07T17:11:05.982Z,9.01
2023-01-07T17:13:37.248Z,9.27
2023-01-07T17:16:34.243Z,9.35
2023-01-07T17:19:23.235Z,9.38
2023-01-07T17:21:51.414Z,9.38
2023-01-07T17:24:38.675Z,9.17
2023-01-07T17:27:06.815Z,9.31
2023-01-07T17:29:36.882Z,9.24
2023-01-07T17:32:06.951Z,9.38
2023-01-07T17:34:34.982Z,8.20
2023-01-07T17:37:02.815Z,9.06
2023-01-07T17:39:30.872Z,9.15
2023-01-07T17:42:16.138Z,9.00
2023-01-07T17:44:44.138Z,8.04
2023-01-07T17:47:14.070Z,8.74
2023-01-07T17:49:42.105Z,8.27
2023-01-07T17:52:11.075Z,8.40
2023-01-07T17:54:39.885Z,8.75
2023-01-07T17:57:07.808Z,8.33
2023-01-07T17:59:36.001Z,8.78
2023-01-07T18:02:05.669Z,8.85
2023-01-07T18:04:35.027Z,8.95
2023-01-07T18:07:02.945Z,8.42
2023-01-07T18:09:30.784Z,8.09
2023-01-07T18:12:16.248Z,8.68
2023-01-07T18:14:44.233Z,8.75
2023-01-07T18:17:12.203Z,8.59
2023-01-07T18:19:41.472Z,8.68
2023-01-07T18:22:09.382Z,8.49
2023-01-07T18:24:37.348Z,7.39
2023-01-07T18:27:05.434Z,8.03
2023-01-07T18:29:33.353Z,7.21
2023-01-07T18:32:01.603Z,8.47
2023-01-07T18:34:29.514Z,8.58
2023-01-07T18:36:58.742Z,8.11
2023-01-07T18:39:26.922Z,8.57
2023-01-07T18:41:54.758Z,8.53
2023-01-07T18:44:23.983Z,8.40
2023-01-07T18:46:51.917Z,8.53
2023-01-07T18:49:20.036Z,8.45
2023-01-07T18:51:48.360Z,8.19
2023-01-07T18:54:18.299Z,8.44
2023-01-07T18:56:46.768Z,8.08
2023-01-07T18:59:15.017Z,8.13
2023-01-07T19:01:43.540Z,8.04
2023-01-07T19:04:11.556Z,8.43
2023-01-07T19:06:39.522Z,8.40
2023-01-07T19:09:07.516Z,8.40
2023-01-07T19:11:38.236Z,8.05
2023-01-07T19:14:06.157Z,8.45
2023-01-07T19:16:34.105Z,8.45
2023-01-07T19:19:02.342Z,7.38
2023-01-07T19:21:30.217Z,8.50
2023-01-07T19:23:58.886Z,8.26
2023-01-07T19:26:27.312Z,8.33
2023-01-07T19:28:56.723Z,7.99
2023-01-07T19:31:24.640Z,8.08
2023-01-07T19:33:52.524Z,8.44
2023-01-07T19:36:20.854Z,8.48
2023-01-07T19:38:49.649Z,8.41
2023-01-07T19:41:19.266Z,8.20
2023-01-07T19:43:47.864Z,8.37
2023-01-07T19:46:17.447Z,8.43
2023-01-07T19:48:48.065Z,8.30
2023-01-07T19:51:16.265Z,8.40
2023-01-07T19:53:44.113Z,8.42
2023-01-07T19:56:13.561Z,8.33
2023-01-07T19:58:41.949Z,8.32
2023-01-07T20:01:12.725Z,8.35
2023-01-07T20:03:42.755Z,8.22
2023-01-07T20:06:13.174Z,7.80
2023-01-07T20:08:41.985Z,8.42
2023-01-07T20:11:10.287Z,8.43
2023-01-07T20:13:39.628Z,8.38
2023-01-07T20:16:09.394Z,7.92
2023-01-07T20:18:41.409Z,7.62
2023-01-07T20:21:11.114Z,8.35
2023-01-07T20:23:40.392Z,8.43
2023-01-07T20:26:11.705Z,8.38
2023-01-07T20:28:39.686Z,8.03
2023-01-07T20:31:09.098Z,8.45
2023-01-07T20:33:37.113Z,7.31
2023-01-07T20:36:08.162Z,8.32
2023-01-07T20:38:38.119Z,7.90
2023-01-07T20:41:06.698Z,8.35
2023-01-07T20:43:35.712Z,8.43
2023-01-07T20:46:05.326Z,8.32
2023-01-07T20:48:33.622Z,8.35
2023-01-07T20:51:06.576Z,8.23
2023-01-07T20:53:35.259Z,8.16
2023-01-07T20:56:06.128Z,8.21
2023-01-07T20:58:36.030Z,8.19
2023-01-07T21:01:04.982Z,8.20
2023-01-07T21:03:33.051Z,8.11
2023-01-07T21:06:01.151Z,8.29
2023-01-07T21:08:29.331Z,8.15
2023-01-07T21:10:57.306Z,6.60
2023-01-07T21:13:27.174Z,8.35
2023-01-07T21:15:55.114Z,8.07
2023-01-07T21:18:23.022Z,8.35
2023-01-07T21:20:51.133Z,7.91
2023-01-07T21:23:18.992Z,8.33
2023-01-07T21:25:48.762Z,8.56
2023-01-07T21:28:16.847Z,8.58
2023-01-07T21:30:46.633Z,8.38
2023-01-07T21:33:14.795Z,8.26
2023-01-07T21:35:42.888Z,8.47
2023-01-07T21:38:10.924Z,8.61
2023-01-07T21:40:42.509Z,8.78
2023-01-07T21:43:10.512Z,8.82
2023-01-07T21:45:38.731Z,7.42
2023-01-07T21:48:08.212Z,8.78
2023-01-07T21:50:36.066Z,8.76
2023-01-07T21:53:03.961Z,8.33
2023-01-07T21:55:31.846Z,8.80
2023-01-07T21:57:59.656Z,8.79
2023-01-07T22:00:27.627Z,7.98
2023-01-07T22:02:55.901Z,8.42
2023-01-07T22:05:25.066Z,8.81
2023-01-07T22:07:52.970Z,8.70
2023-01-07T22:10:20.775Z,8.77
2023-01-07T22:12:48.730Z,8.71
2023-01-07T22:15:16.644Z,7.94
2023-01-07T22:17:44.605Z,8.60
2023-01-07T22:20:13.696Z,8.16
2023-01-07T22:22:42.953Z,8.74
2023-01-07T22:25:11.152Z,8.36
2023-01-07T22:27:39.128Z,8.58
2023-01-07T22:30:09.201Z,8.48
2023-01-07T22:32:37.188Z,8.30
2023-01-07T22:35:05.683Z,8.80
2023-01-07T22:37:33.711Z,8.75
2023-01-07T22:40:06.025Z,8.77
2023-01-07T22:42:38.517Z,8.80
2023-01-07T22:45:11.692Z,8.60
2023-01-07T22:47:43.233Z,8.16
2023-01-07T22:50:14.439Z,7.71
2023-01-07T22:52:43.472Z,8.54
2023-01-07T22:55:13.468Z,8.59
2023-01-07T22:57:41.957Z,8.79
2023-01-07T23:00:17.165Z,8.72
2023-01-07T23:02:45.031Z,8.65
2023-01-07T23:05:13.457Z,8.78
2023-01-07T23:07:41.275Z,8.22
2023-01-07T23:10:09.762Z,8.61
2023-01-07T23:12:39.170Z,8.26
2023-01-07T23:15:08.792Z,8.22
2023-01-07T23:17:36.816Z,8.75
2023-01-07T23:20:05.428Z,8.05
2023-01-07T23:22:33.348Z,8.10
2023-01-07T23:25:01.203Z,8.76
2023-01-07T23:27:29.199Z,8.07
2023-01-07T23:29:59.028Z,8.78
2023-01-07T23:32:27.014Z,8.80
2023-01-07T23:34:54.958Z,8.75
2023-01-07T23:37:22.917Z,8.70
2023-01-07T23:39:50.960Z,8.17
2023-01-07T23:42:19.701Z,8.54
2023-01-07T23:44:47.776Z,8.72
2023-01-07T23:47:17.221Z,8.63
2023-01-07T23:49:45.227Z,8.78
2023-01-07T23:52:13.185Z,8.70
2023-01-07T23:54:41.463Z,8.70
2023-01-07T23:57:09.606Z,8.72
2023-01-07T23:59:37.671Z,8.29
